sensor_id;sensor_type;location;lat;lon;timestamp;P1;durP1;ratioP1;P2;durP2;ratioP2
15480;SDS011;7842;50.904;6.670;2023-06-19T00:02:02;5.93;;;5.33;;
15480;SDS011;7842;50.904;6.670;2023-06-19T00:04:28;6.03;;;5.43;;
15480;SDS011;7842;50.904;6.670;2023-06-19T00:06:53;6.25;;;5.65;;
15480;SDS011;7842;50.904;6.670;2023-06-19T00:09:19;6.60;;;5.77;;
15480;SDS011;7842;50.904;6.670;2023-06-19T00:11:45;6.88;;;5.75;;
15480;SDS011;7842;50.904;6.670;2023-06-19T00:14:10;6.40;;;5.73;;
15480;SDS011;7842;50.904;6.670;2023-06-19T00:16:36;6.32;;;5.65;;
15480;SDS011;7842;50.904;6.670;2023-06-19T00:19:02;6.57;;;5.43;;
15480;SDS011;7842;50.904;6.670;2023-06-19T00:21:28;6.75;;;6.05;;
15480;SDS011;7842;50.904;6.670;2023-06-19T00:23:55;7.85;;;7.03;;
15480;SDS011;7842;50.904;6.670;2023-06-19T00:26:20;7.30;;;6.60;;
15480;SDS011;7842;50.904;6.670;2023-06-19T00:28:50;8.07;;;6.90;;
15480;SDS011;7842;50.904;6.670;2023-06-19T00:31:16;7.22;;;6.53;;
15480;SDS011;7842;50.904;6.670;2023-06-19T00:33:43;7.10;;;6.40;;
15480;SDS011;7842;50.904;6.670;2023-06-19T00:36:15;7.80;;;6.32;;
15480;SDS011;7842;50.904;6.670;2023-06-19T00:38:45;7.00;;;6.30;;
15480;SDS011;7842;50.904;6.670;2023-06-19T00:41:11;6.68;;;6.05;;
15480;SDS011;7842;50.904;6.670;2023-06-19T00:43:36;7.07;;;6.33;;
15480;SDS011;7842;50.904;6.670;2023-06-19T00:46:02;7.15;;;6.45;;
15480;SDS011;7842;50.904;6.670;2023-06-19T00:48:28;7.43;;;6.00;;
15480;SDS011;7842;50.904;6.670;2023-06-19T00:50:56;6.87;;;6.17;;
15480;SDS011;7842;50.904;6.670;2023-06-19T00:53:23;6.45;;;5.80;;
15480;SDS011;7842;50.904;6.670;2023-06-19T00:55:50;6.60;;;6.00;;
15480;SDS011;7842;50.904;6.670;2023-06-19T00:58:17;7.13;;;6.20;;
15480;SDS011;7842;50.904;6.670;2023-06-19T01:00:44;6.97;;;6.15;;
15480;SDS011;7842;50.904;6.670;2023-06-19T01:03:10;7.32;;;6.63;;
15480;SDS011;7842;50.904;6.670;2023-06-19T01:05:35;6.90;;;6.20;;
15480;SDS011;7842;50.904;6.670;2023-06-19T01:08:10;6.72;;;6.10;;
15480;SDS011;7842;50.904;6.670;2023-06-19T01:10:37;6.97;;;6.28;;
15480;SDS011;7842;50.904;6.670;2023-06-19T01:15:52;6.60;;;6.00;;
15480;SDS011;7842;50.904;6.670;2023-06-19T01:18:19;7.50;;;6.80;;
15480;SDS011;7842;50.904;6.670;2023-06-19T01:20:45;7.43;;;6.72;;
15480;SDS011;7842;50.904;6.670;2023-06-19T01:23:11;7.80;;;6.97;;
15480;SDS011;7842;50.904;6.670;2023-06-19T01:25:37;8.13;;;6.60;;
15480;SDS011;7842;50.904;6.670;2023-06-19T01:28:03;7.90;;;7.20;;
15480;SDS011;7842;50.904;6.670;2023-06-19T01:30:31;7.47;;;6.72;;
15480;SDS011;7842;50.904;6.670;2023-06-19T01:33:09;7.28;;;6.45;;
15480;SDS011;7842;50.904;6.670;2023-06-19T01:35:56;7.60;;;6.45;;
15480;SDS011;7842;50.904;6.670;2023-06-19T01:38:24;7.20;;;6.50;;
15480;SDS011;7842;50.904;6.670;2023-06-19T01:40:54;7.38;;;6.68;;
15480;SDS011;7842;50.904;6.670;2023-06-19T01:43:21;7.82;;;6.60;;
15480;SDS011;7842;50.904;6.670;2023-06-19T01:45:49;7.50;;;6.70;;
15480;SDS011;7842;50.904;6.670;2023-06-19T01:48:15;8.13;;;6.75;;
15480;SDS011;7842;50.904;6.670;2023-06-19T01:50:44;7.45;;;6.75;;
15480;SDS011;7842;50.904;6.670;2023-06-19T01:53:12;8.50;;;7.50;;
15480;SDS011;7842;50.904;6.670;2023-06-19T01:55:38;7.45;;;6.75;;
15480;SDS011;7842;50.904;6.670;2023-06-19T01:58:03;7.75;;;7.05;;
15480;SDS011;7842;50.904;6.670;2023-06-19T02:00:29;6.97;;;6.27;;
15480;SDS011;7842;50.904;6.670;2023-06-19T02:02:55;7.10;;;6.40;;
15480;SDS011;7842;50.904;6.670;2023-06-19T02:05:21;7.13;;;6.28;;
15480;SDS011;7842;50.904;6.670;2023-06-19T02:07:47;7.05;;;6.25;;
15480;SDS011;7842;50.904;6.670;2023-06-19T02:10:12;7.50;;;6.80;;
15480;SDS011;7842;50.904;6.670;2023-06-19T02:12:38;7.45;;;6.75;;
15480;SDS011;7842;50.904;6.670;2023-06-19T02:15:04;7.77;;;7.07;;
15480;SDS011;7842;50.904;6.670;2023-06-19T02:17:30;7.90;;;7.00;;
15480;SDS011;7842;50.904;6.670;2023-06-19T02:19:55;7.50;;;6.80;;
15480;SDS011;7842;50.904;6.670;2023-06-19T02:22:21;8.60;;;6.77;;
15480;SDS011;7842;50.904;6.670;2023-06-19T02:24:46;7.57;;;6.88;;
15480;SDS011;7842;50.904;6.670;2023-06-19T02:27:12;7.90;;;7.20;;
15480;SDS011;7842;50.904;6.670;2023-06-19T02:29:38;7.07;;;6.38;;
15480;SDS011;7842;50.904;6.670;2023-06-19T02:32:03;7.83;;;7.03;;
15480;SDS011;7842;50.904;6.670;2023-06-19T02:34:29;7.82;;;7.13;;
15480;SDS011;7842;50.904;6.670;2023-06-19T02:36:55;8.18;;;7.43;;
15480;SDS011;7842;50.904;6.670;2023-06-19T02:39:21;8.33;;;7.10;;
15480;SDS011;7842;50.904;6.670;2023-06-19T02:41:46;8.52;;;6.80;;
15480;SDS011;7842;50.904;6.670;2023-06-19T02:44:12;8.33;;;7.13;;
15480;SDS011;7842;50.904;6.670;2023-06-19T02:46:39;7.43;;;6.72;;
15480;SDS011;7842;50.904;6.670;2023-06-19T02:49:06;8.03;;;7.00;;
15480;SDS011;7842;50.904;6.670;2023-06-19T02:51:32;7.57;;;6.88;;
15480;SDS011;7842;50.904;6.670;2023-06-19T02:53:57;8.47;;;6.80;;
15480;SDS011;7842;50.904;6.670;2023-06-19T02:56:25;8.38;;;7.57;;
15480;SDS011;7842;50.904;6.670;2023-06-19T02:58:51;8.18;;;6.57;;
15480;SDS011;7842;50.904;6.670;2023-06-19T03:01:17;7.53;;;6.82;;
15480;SDS011;7842;50.904;6.670;2023-06-19T03:03:42;7.97;;;7.17;;
15480;SDS011;7842;50.904;6.670;2023-06-19T03:06:08;7.13;;;6.47;;
15480;SDS011;7842;50.904;6.670;2023-06-19T03:08:34;7.13;;;6.50;;
15480;SDS011;7842;50.904;6.670;2023-06-19T03:11:00;8.00;;;7.30;;
15480;SDS011;7842;50.904;6.670;2023-06-19T03:13:29;8.40;;;7.60;;
15480;SDS011;7842;50.904;6.670;2023-06-19T03:15:56;8.18;;;7.20;;
15480;SDS011;7842;50.904;6.670;2023-06-19T03:18:22;7.20;;;6.43;;
15480;SDS011;7842;50.904;6.670;2023-06-19T03:20:48;6.53;;;5.90;;
15480;SDS011;7842;50.904;6.670;2023-06-19T03:23:13;6.53;;;5.80;;
15480;SDS011;7842;50.904;6.670;2023-06-19T03:25:39;6.75;;;5.57;;
15480;SDS011;7842;50.904;6.670;2023-06-19T03:28:07;6.10;;;5.50;;
15480;SDS011;7842;50.904;6.670;2023-06-19T03:30:33;6.07;;;5.40;;
15480;SDS011;7842;50.904;6.670;2023-06-19T03:32:59;6.23;;;5.40;;
15480;SDS011;7842;50.904;6.670;2023-06-19T03:35:24;5.93;;;5.32;;
15480;SDS011;7842;50.904;6.670;2023-06-19T03:37:50;6.47;;;5.13;;
15480;SDS011;7842;50.904;6.670;2023-06-19T03:40:15;6.20;;;5.53;;
15480;SDS011;7842;50.904;6.670;2023-06-19T03:42:41;7.70;;;5.55;;
15480;SDS011;7842;50.904;6.670;2023-06-19T03:45:07;6.70;;;5.23;;
15480;SDS011;7842;50.904;6.670;2023-06-19T03:47:33;7.47;;;5.10;;
15480;SDS011;7842;50.904;6.670;2023-06-19T03:49:58;6.13;;;4.90;;
15480;SDS011;7842;50.904;6.670;2023-06-19T03:52:24;6.47;;;4.80;;
15480;SDS011;7842;50.904;6.670;2023-06-19T03:54:50;5.00;;;4.50;;
15480;SDS011;7842;50.904;6.670;2023-06-19T03:57:15;4.78;;;4.07;;
15480;SDS011;7842;50.904;6.670;2023-06-19T03:59:44;5.00;;;4.05;;
15480;SDS011;7842;50.904;6.670;2023-06-19T04:02:10;4.78;;;4.05;;
15480;SDS011;7842;50.904;6.670;2023-06-19T04:04:35;4.37;;;3.83;;
15480;SDS011;7842;50.904;6.670;2023-06-19T04:07:01;4.38;;;3.80;;
15480;SDS011;7842;50.904;6.670;2023-06-19T04:09:26;4.57;;;3.90;;
15480;SDS011;7842;50.904;6.670;2023-06-19T04:11:52;4.60;;;4.03;;
15480;SDS011;7842;50.904;6.670;2023-06-19T04:14:18;5.03;;;3.90;;
15480;SDS011;7842;50.904;6.670;2023-06-19T04:16:43;4.10;;;3.70;;
15480;SDS011;7842;50.904;6.670;2023-06-19T04:19:09;4.75;;;4.25;;
15480;SDS011;7842;50.904;6.670;2023-06-19T04:21:35;4.20;;;3.80;;
15480;SDS011;7842;50.904;6.670;2023-06-19T04:24:00;4.88;;;3.92;;
15480;SDS011;7842;50.904;6.670;2023-06-19T04:26:26;4.80;;;4.10;;
15480;SDS011;7842;50.904;6.670;2023-06-19T04:28:51;4.47;;;3.87;;
15480;SDS011;7842;50.904;6.670;2023-06-19T04:31:17;4.43;;;3.80;;
15480;SDS011;7842;50.904;6.670;2023-06-19T04:33:46;4.72;;;3.60;;
15480;SDS011;7842;50.904;6.670;2023-06-19T04:36:12;4.00;;;3.57;;
15480;SDS011;7842;50.904;6.670;2023-06-19T04:38:37;4.32;;;3.72;;
15480;SDS011;7842;50.904;6.670;2023-06-19T04:41:03;7.03;;;3.67;;
15480;SDS011;7842;50.904;6.670;2023-06-19T04:43:29;5.18;;;3.60;;
15480;SDS011;7842;50.904;6.670;2023-06-19T04:45:55;5.17;;;3.33;;
15480;SDS011;7842;50.904;6.670;2023-06-19T04:48:21;4.32;;;3.42;;
15480;SDS011;7842;50.904;6.670;2023-06-19T04:50:50;3.70;;;3.40;;
15480;SDS011;7842;50.904;6.670;2023-06-19T04:53:16;4.25;;;3.22;;
15480;SDS011;7842;50.904;6.670;2023-06-19T04:55:42;5.82;;;3.40;;
15480;SDS011;7842;50.904;6.670;2023-06-19T04:58:08;4.35;;;3.20;;
15480;SDS011;7842;50.904;6.670;2023-06-19T05:00:37;3.42;;;3.10;;
15480;SDS011;7842;50.904;6.670;2023-06-19T05:03:03;5.03;;;3.30;;
15480;SDS011;7842;50.904;6.670;2023-06-19T05:05:29;3.80;;;3.20;;
15480;SDS011;7842;50.904;6.670;2023-06-19T05:07:54;3.70;;;3.20;;
15480;SDS011;7842;50.904;6.670;2023-06-19T05:10:20;3.33;;;2.97;;
15480;SDS011;7842;50.904;6.670;2023-06-19T05:12:46;3.27;;;2.90;;
15480;SDS011;7842;50.904;6.670;2023-06-19T05:15:12;3.17;;;2.80;;
15480;SDS011;7842;50.904;6.670;2023-06-19T05:17:37;3.97;;;3.05;;
15480;SDS011;7842;50.904;6.670;2023-06-19T05:20:04;3.47;;;3.05;;
15480;SDS011;7842;50.904;6.670;2023-06-19T05:22:32;3.40;;;2.70;;
15480;SDS011;7842;50.904;6.670;2023-06-19T05:24:59;4.30;;;3.10;;
15480;SDS011;7842;50.904;6.670;2023-06-19T05:27:25;3.00;;;2.70;;
15480;SDS011;7842;50.904;6.670;2023-06-19T05:29:51;4.20;;;2.72;;
15480;SDS011;7842;50.904;6.670;2023-06-19T05:32:16;2.63;;;2.43;;
15480;SDS011;7842;50.904;6.670;2023-06-19T05:34:42;3.22;;;2.83;;
15480;SDS011;7842;50.904;6.670;2023-06-19T05:37:08;3.03;;;2.70;;
15480;SDS011;7842;50.904;6.670;2023-06-19T05:39:33;3.00;;;2.60;;
15480;SDS011;7842;50.904;6.670;2023-06-19T05:41:59;3.00;;;2.30;;
15480;SDS011;7842;50.904;6.670;2023-06-19T05:44:27;3.17;;;2.40;;
15480;SDS011;7842;50.904;6.670;2023-06-19T05:46:52;3.00;;;2.40;;
15480;SDS011;7842;50.904;6.670;2023-06-19T05:49:18;2.40;;;2.20;;
15480;SDS011;7842;50.904;6.670;2023-06-19T05:51:44;2.60;;;2.40;;
15480;SDS011;7842;50.904;6.670;2023-06-19T05:54:09;2.50;;;2.30;;
15480;SDS011;7842;50.904;6.670;2023-06-19T05:56:35;2.90;;;2.20;;
15480;SDS011;7842;50.904;6.670;2023-06-19T05:59:01;2.80;;;2.40;;
15480;SDS011;7842;50.904;6.670;2023-06-19T06:01:27;3.30;;;2.30;;
15480;SDS011;7842;50.904;6.670;2023-06-19T06:03:54;3.30;;;2.58;;
15480;SDS011;7842;50.904;6.670;2023-06-19T06:06:20;2.55;;;2.05;;
15480;SDS011;7842;50.904;6.670;2023-06-19T06:08:46;4.40;;;2.20;;
15480;SDS011;7842;50.904;6.670;2023-06-19T06:11:11;2.70;;;2.17;;
15480;SDS011;7842;50.904;6.670;2023-06-19T06:13:37;2.63;;;2.20;;
15480;SDS011;7842;50.904;6.670;2023-06-19T06:16:02;2.35;;;2.08;;
15480;SDS011;7842;50.904;6.670;2023-06-19T06:18:28;2.60;;;1.80;;
15480;SDS011;7842;50.904;6.670;2023-06-19T06:20:54;2.28;;;1.92;;
15480;SDS011;7842;50.904;6.670;2023-06-19T06:23:19;2.10;;;1.90;;
15480;SDS011;7842;50.904;6.670;2023-06-19T06:25:45;2.58;;;1.95;;
15480;SDS011;7842;50.904;6.670;2023-06-19T06:28:11;3.40;;;2.03;;
15480;SDS011;7842;50.904;6.670;2023-06-19T06:30:37;1.88;;;1.63;;
15480;SDS011;7842;50.904;6.670;2023-06-19T06:33:03;1.77;;;1.58;;
15480;SDS011;7842;50.904;6.670;2023-06-19T06:35:29;1.85;;;1.60;;
15480;SDS011;7842;50.904;6.670;2023-06-19T06:37:55;2.40;;;1.80;;
15480;SDS011;7842;50.904;6.670;2023-06-19T06:40:21;2.05;;;1.45;;
15480;SDS011;7842;50.904;6.670;2023-06-19T06:42:46;1.87;;;1.70;;
15480;SDS011;7842;50.904;6.670;2023-06-19T06:45:12;1.60;;;1.50;;
15480;SDS011;7842;50.904;6.670;2023-06-19T06:47:38;2.60;;;1.50;;
15480;SDS011;7842;50.904;6.670;2023-06-19T06:50:05;2.78;;;1.63;;
15480;SDS011;7842;50.904;6.670;2023-06-19T06:52:31;1.67;;;1.50;;
15480;SDS011;7842;50.904;6.670;2023-06-19T06:54:57;1.65;;;1.55;;
15480;SDS011;7842;50.904;6.670;2023-06-19T06:57:23;2.00;;;1.60;;
15480;SDS011;7842;50.904;6.670;2023-06-19T06:59:48;2.00;;;1.70;;
15480;SDS011;7842;50.904;6.670;2023-06-19T07:02:14;2.15;;;1.80;;
15480;SDS011;7842;50.904;6.670;2023-06-19T07:04:39;1.93;;;1.77;;
15480;SDS011;7842;50.904;6.670;2023-06-19T07:07:05;2.13;;;1.77;;
15480;SDS011;7842;50.904;6.670;2023-06-19T07:09:31;2.00;;;1.80;;
15480;SDS011;7842;50.904;6.670;2023-06-19T07:11:58;1.90;;;1.70;;
15480;SDS011;7842;50.904;6.670;2023-06-19T07:14:23;2.10;;;1.77;;
15480;SDS011;7842;50.904;6.670;2023-06-19T07:16:49;2.17;;;1.70;;
15480;SDS011;7842;50.904;6.670;2023-06-19T07:19:15;2.03;;;1.80;;
15480;SDS011;7842;50.904;6.670;2023-06-19T07:21:41;2.20;;;1.98;;
15480;SDS011;7842;50.904;6.670;2023-06-19T07:24:07;1.90;;;1.70;;
15480;SDS011;7842;50.904;6.670;2023-06-19T07:26:33;1.80;;;1.70;;
15480;SDS011;7842;50.904;6.670;2023-06-19T07:28:59;1.95;;;1.77;;
15480;SDS011;7842;50.904;6.670;2023-06-19T07:31:24;2.23;;;1.80;;
15480;SDS011;7842;50.904;6.670;2023-06-19T07:33:50;1.88;;;1.65;;
15480;SDS011;7842;50.904;6.670;2023-06-19T07:36:16;2.00;;;1.80;;
15480;SDS011;7842;50.904;6.670;2023-06-19T07:38:42;2.38;;;2.08;;
15480;SDS011;7842;50.904;6.670;2023-06-19T07:41:08;2.60;;;1.90;;
15480;SDS011;7842;50.904;6.670;2023-06-19T07:43:35;2.55;;;1.98;;
15480;SDS011;7842;50.904;6.670;2023-06-19T07:46:01;3.13;;;2.08;;
15480;SDS011;7842;50.904;6.670;2023-06-19T07:48:27;3.20;;;2.08;;
15480;SDS011;7842;50.904;6.670;2023-06-19T07:50:53;2.20;;;2.00;;
15480;SDS011;7842;50.904;6.670;2023-06-19T07:53:19;3.10;;;2.10;;
15480;SDS011;7842;50.904;6.670;2023-06-19T07:55:45;2.65;;;2.00;;
15480;SDS011;7842;50.904;6.670;2023-06-19T07:58:10;2.30;;;2.10;;
15480;SDS011;7842;50.904;6.670;2023-06-19T08:00:36;4.30;;;2.30;;
15480;SDS011;7842;50.904;6.670;2023-06-19T08:03:02;2.90;;;2.30;;
15480;SDS011;7842;50.904;6.670;2023-06-19T08:05:27;3.22;;;2.17;;
15480;SDS011;7842;50.904;6.670;2023-06-19T08:07:53;3.60;;;2.40;;
15480;SDS011;7842;50.904;6.670;2023-06-19T08:10:19;3.50;;;2.10;;
15480;SDS011;7842;50.904;6.670;2023-06-19T08:12:45;4.10;;;2.47;;
15480;SDS011;7842;50.904;6.670;2023-06-19T08:15:11;2.45;;;2.25;;
15480;SDS011;7842;50.904;6.670;2023-06-19T08:17:38;4.90;;;2.55;;
15480;SDS011;7842;50.904;6.670;2023-06-19T08:20:05;3.08;;;2.53;;
15480;SDS011;7842;50.904;6.670;2023-06-19T08:22:32;4.13;;;2.58;;
15480;SDS011;7842;50.904;6.670;2023-06-19T08:24:58;3.67;;;2.53;;
15480;SDS011;7842;50.904;6.670;2023-06-19T08:27:23;4.77;;;2.90;;
15480;SDS011;7842;50.904;6.670;2023-06-19T08:29:49;2.97;;;2.40;;
15480;SDS011;7842;50.904;6.670;2023-06-19T08:32:17;5.00;;;3.10;;
15480;SDS011;7842;50.904;6.670;2023-06-19T08:34:42;3.40;;;2.58;;
15480;SDS011;7842;50.904;6.670;2023-06-19T08:37:08;3.80;;;2.93;;
15480;SDS011;7842;50.904;6.670;2023-06-19T08:39:34;4.38;;;3.17;;
15480;SDS011;7842;50.904;6.670;2023-06-19T08:42:03;4.20;;;3.40;;
15480;SDS011;7842;50.904;6.670;2023-06-19T08:44:30;4.53;;;3.83;;
15480;SDS011;7842;50.904;6.670;2023-06-19T08:46:57;4.90;;;4.40;;
15480;SDS011;7842;50.904;6.670;2023-06-19T08:49:22;4.72;;;4.32;;
15480;SDS011;7842;50.904;6.670;2023-06-19T08:51:48;4.80;;;3.50;;
15480;SDS011;7842;50.904;6.670;2023-06-19T08:54:14;4.00;;;3.10;;
15480;SDS011;7842;50.904;6.670;2023-06-19T08:56:40;3.55;;;3.25;;
15480;SDS011;7842;50.904;6.670;2023-06-19T08:59:09;5.50;;;3.93;;
15480;SDS011;7842;50.904;6.670;2023-06-19T09:01:37;4.80;;;4.18;;
15480;SDS011;7842;50.904;6.670;2023-06-19T09:04:12;5.05;;;4.22;;
15480;SDS011;7842;50.904;6.670;2023-06-19T09:09:16;4.97;;;3.97;;
15480;SDS011;7842;50.904;6.670;2023-06-19T09:11:43;5.53;;;3.90;;
15480;SDS011;7842;50.904;6.670;2023-06-19T09:14:09;4.65;;;3.80;;
15480;SDS011;7842;50.904;6.670;2023-06-19T09:16:36;4.75;;;3.65;;
15480;SDS011;7842;50.904;6.670;2023-06-19T09:19:06;4.45;;;3.53;;
15480;SDS011;7842;50.904;6.670;2023-06-19T09:21:31;5.15;;;3.80;;
15480;SDS011;7842;50.904;6.670;2023-06-19T09:24:06;5.30;;;4.20;;
15480;SDS011;7842;50.904;6.670;2023-06-19T09:26:33;4.55;;;4.03;;
15480;SDS011;7842;50.904;6.670;2023-06-19T09:29:12;5.07;;;4.32;;
15480;SDS011;7842;50.904;6.670;2023-06-19T09:31:41;5.20;;;4.20;;
15480;SDS011;7842;50.904;6.670;2023-06-19T09:34:07;4.28;;;3.88;;
15480;SDS011;7842;50.904;6.670;2023-06-19T09:36:33;5.80;;;4.03;;
15480;SDS011;7842;50.904;6.670;2023-06-19T09:39:02;5.25;;;4.32;;
15480;SDS011;7842;50.904;6.670;2023-06-19T09:41:28;6.13;;;4.40;;
15480;SDS011;7842;50.904;6.670;2023-06-19T09:43:55;5.30;;;4.20;;
15480;SDS011;7842;50.904;6.670;2023-06-19T09:46:26;5.28;;;4.25;;
15480;SDS011;7842;50.904;6.670;2023-06-19T09:48:56;5.10;;;4.40;;
15480;SDS011;7842;50.904;6.670;2023-06-19T09:51:33;5.47;;;4.30;;
15480;SDS011;7842;50.904;6.670;2023-06-19T09:54:02;5.40;;;4.25;;
15480;SDS011;7842;50.904;6.670;2023-06-19T09:56:29;4.83;;;4.00;;
15480;SDS011;7842;50.904;6.670;2023-06-19T09:58:57;5.53;;;3.88;;
15480;SDS011;7842;50.904;6.670;2023-06-19T10:01:29;4.93;;;4.43;;
15480;SDS011;7842;50.904;6.670;2023-06-19T10:04:06;5.45;;;4.25;;
15480;SDS011;7842;50.904;6.670;2023-06-19T10:06:33;5.80;;;4.22;;
15480;SDS011;7842;50.904;6.670;2023-06-19T10:09:11;5.90;;;4.13;;
15480;SDS011;7842;50.904;6.670;2023-06-19T10:11:48;4.20;;;3.60;;
15480;SDS011;7842;50.904;6.670;2023-06-19T10:14:21;4.40;;;4.00;;
15480;SDS011;7842;50.904;6.670;2023-06-19T10:16:47;4.90;;;3.92;;
15480;SDS011;7842;50.904;6.670;2023-06-19T10:19:14;4.70;;;4.00;;
15480;SDS011;7842;50.904;6.670;2023-06-19T10:21:45;5.67;;;4.27;;
15480;SDS011;7842;50.904;6.670;2023-06-19T10:24:19;5.20;;;4.10;;
15480;SDS011;7842;50.904;6.670;2023-06-19T10:27:01;5.90;;;4.27;;
15480;SDS011;7842;50.904;6.670;2023-06-19T10:29:37;4.97;;;3.90;;
15480;SDS011;7842;50.904;6.670;2023-06-19T10:32:04;5.35;;;3.83;;
15480;SDS011;7842;50.904;6.670;2023-06-19T10:34:33;5.17;;;3.73;;
15480;SDS011;7842;50.904;6.670;2023-06-19T10:37:02;5.18;;;3.70;;
15480;SDS011;7842;50.904;6.670;2023-06-19T10:39:30;4.82;;;4.20;;
15480;SDS011;7842;50.904;6.670;2023-06-19T10:41:55;4.67;;;4.00;;
15480;SDS011;7842;50.904;6.670;2023-06-19T10:44:22;4.90;;;3.88;;
15480;SDS011;7842;50.904;6.670;2023-06-19T10:46:52;6.47;;;4.05;;
15480;SDS011;7842;50.904;6.670;2023-06-19T10:49:18;5.47;;;4.03;;
15480;SDS011;7842;50.904;6.670;2023-06-19T10:51:44;5.10;;;3.55;;
15480;SDS011;7842;50.904;6.670;2023-06-19T10:54:09;6.00;;;4.00;;
15480;SDS011;7842;50.904;6.670;2023-06-19T10:56:35;5.07;;;4.00;;
15480;SDS011;7842;50.904;6.670;2023-06-19T10:59:05;5.43;;;4.20;;
15480;SDS011;7842;50.904;6.670;2023-06-19T11:01:37;4.90;;;3.80;;
15480;SDS011;7842;50.904;6.670;2023-06-19T11:04:07;4.82;;;3.92;;
15480;SDS011;7842;50.904;6.670;2023-06-19T11:06:38;5.32;;;4.10;;
15480;SDS011;7842;50.904;6.670;2023-06-19T11:09:05;6.75;;;4.47;;
15480;SDS011;7842;50.904;6.670;2023-06-19T11:11:42;5.07;;;3.80;;
15480;SDS011;7842;50.904;6.670;2023-06-19T11:14:15;4.80;;;3.95;;
15480;SDS011;7842;50.904;6.670;2023-06-19T11:16:45;5.72;;;4.30;;
15480;SDS011;7842;50.904;6.670;2023-06-19T11:19:16;5.30;;;4.13;;
15480;SDS011;7842;50.904;6.670;2023-06-19T11:21:48;5.53;;;4.10;;
15480;SDS011;7842;50.904;6.670;2023-06-19T11:24:17;8.07;;;3.90;;
15480;SDS011;7842;50.904;6.670;2023-06-19T11:26:45;4.82;;;4.00;;
15480;SDS011;7842;50.904;6.670;2023-06-19T11:29:15;5.50;;;4.10;;
15480;SDS011;7842;50.904;6.670;2023-06-19T11:31:45;5.38;;;3.83;;
15480;SDS011;7842;50.904;6.670;2023-06-19T11:34:12;5.18;;;4.20;;
15480;SDS011;7842;50.904;6.670;2023-06-19T11:36:39;6.75;;;4.25;;
15480;SDS011;7842;50.904;6.670;2023-06-19T11:39:15;6.07;;;4.20;;
15480;SDS011;7842;50.904;6.670;2023-06-19T11:41:47;5.60;;;4.40;;
15480;SDS011;7842;50.904;6.670;2023-06-19T11:44:12;4.45;;;4.05;;
15480;SDS011;7842;50.904;6.670;2023-06-19T11:46:38;5.30;;;4.10;;
15480;SDS011;7842;50.904;6.670;2023-06-19T11:49:17;5.22;;;3.92;;
15480;SDS011;7842;50.904;6.670;2023-06-19T11:51:48;6.18;;;3.78;;
15480;SDS011;7842;50.904;6.670;2023-06-19T11:54:18;5.13;;;4.10;;
15480;SDS011;7842;50.904;6.670;2023-06-19T11:56:46;5.68;;;4.18;;
15480;SDS011;7842;50.904;6.670;2023-06-19T11:59:14;5.35;;;4.40;;
15480;SDS011;7842;50.904;6.670;2023-06-19T12:01:43;6.57;;;4.07;;
15480;SDS011;7842;50.904;6.670;2023-06-19T12:04:11;5.97;;;3.80;;
15480;SDS011;7842;50.904;6.670;2023-06-19T12:06:44;6.43;;;3.70;;
15480;SDS011;7842;50.904;6.670;2023-06-19T12:09:09;5.18;;;3.88;;
15480;SDS011;7842;50.904;6.670;2023-06-19T12:11:36;5.55;;;3.97;;
15480;SDS011;7842;50.904;6.670;2023-06-19T12:14:02;10.73;;;4.20;;
15480;SDS011;7842;50.904;6.670;2023-06-19T12:16:27;5.63;;;4.10;;
15480;SDS011;7842;50.904;6.670;2023-06-19T12:18:53;4.75;;;3.90;;
15480;SDS011;7842;50.904;6.670;2023-06-19T12:21:19;4.60;;;3.80;;
15480;SDS011;7842;50.904;6.670;2023-06-19T12:23:44;6.22;;;3.80;;
15480;SDS011;7842;50.904;6.670;2023-06-19T12:26:10;5.60;;;3.63;;
15480;SDS011;7842;50.904;6.670;2023-06-19T12:28:39;5.32;;;3.60;;
15480;SDS011;7842;50.904;6.670;2023-06-19T12:31:05;4.43;;;3.42;;
15480;SDS011;7842;50.904;6.670;2023-06-19T12:33:31;5.17;;;3.77;;
15480;SDS011;7842;50.904;6.670;2023-06-19T12:35:58;4.50;;;3.55;;
15480;SDS011;7842;50.904;6.670;2023-06-19T12:38:23;7.72;;;3.88;;
15480;SDS011;7842;50.904;6.670;2023-06-19T12:40:49;4.78;;;3.92;;
15480;SDS011;7842;50.904;6.670;2023-06-19T12:43:15;5.57;;;3.72;;
15480;SDS011;7842;50.904;6.670;2023-06-19T12:45:41;5.85;;;3.80;;
15480;SDS011;7842;50.904;6.670;2023-06-19T12:48:06;4.50;;;3.75;;
15480;SDS011;7842;50.904;6.670;2023-06-19T12:50:32;5.28;;;3.35;;
15480;SDS011;7842;50.904;6.670;2023-06-19T12:52:58;5.70;;;3.95;;
15480;SDS011;7842;50.904;6.670;2023-06-19T12:55:23;5.03;;;3.60;;
15480;SDS011;7842;50.904;6.670;2023-06-19T12:57:49;4.78;;;3.40;;
15480;SDS011;7842;50.904;6.670;2023-06-19T13:00:15;4.60;;;3.72;;
15480;SDS011;7842;50.904;6.670;2023-06-19T13:02:40;5.63;;;3.90;;
15480;SDS011;7842;50.904;6.670;2023-06-19T13:05:08;6.45;;;3.45;;
15480;SDS011;7842;50.904;6.670;2023-06-19T13:07:36;6.50;;;3.80;;
15480;SDS011;7842;50.904;6.670;2023-06-19T13:10:02;5.00;;;3.58;;
15480;SDS011;7842;50.904;6.670;2023-06-19T13:12:29;4.85;;;3.67;;
15480;SDS011;7842;50.904;6.670;2023-06-19T13:14:54;4.47;;;3.90;;
15480;SDS011;7842;50.904;6.670;2023-06-19T13:17:20;5.97;;;4.00;;
15480;SDS011;7842;50.904;6.670;2023-06-19T13:19:46;5.22;;;3.80;;
15480;SDS011;7842;50.904;6.670;2023-06-19T13:22:11;5.10;;;3.60;;
15480;SDS011;7842;50.904;6.670;2023-06-19T13:24:37;5.68;;;3.83;;
15480;SDS011;7842;50.904;6.670;2023-06-19T13:27:06;5.87;;;4.20;;
15480;SDS011;7842;50.904;6.670;2023-06-19T13:29:31;5.07;;;3.90;;
15480;SDS011;7842;50.904;6.670;2023-06-19T13:32:06;6.68;;;4.00;;
15480;SDS011;7842;50.904;6.670;2023-06-19T13:34:31;4.47;;;3.83;;
15480;SDS011;7842;50.904;6.670;2023-06-19T13:36:57;5.37;;;3.87;;
15480;SDS011;7842;50.904;6.670;2023-06-19T13:39:23;5.80;;;3.60;;
15480;SDS011;7842;50.904;6.670;2023-06-19T13:41:48;4.20;;;3.63;;
15480;SDS011;7842;50.904;6.670;2023-06-19T13:44:14;5.43;;;3.75;;
15480;SDS011;7842;50.904;6.670;2023-06-19T13:46:40;5.10;;;3.80;;
15480;SDS011;7842;50.904;6.670;2023-06-19T13:49:07;4.65;;;3.67;;
15480;SDS011;7842;50.904;6.670;2023-06-19T13:51:33;4.25;;;3.45;;
15480;SDS011;7842;50.904;6.670;2023-06-19T13:53:59;4.70;;;4.00;;
15480;SDS011;7842;50.904;6.670;2023-06-19T13:56:24;4.55;;;3.70;;
15480;SDS011;7842;50.904;6.670;2023-06-19T13:58:50;6.40;;;3.50;;
15480;SDS011;7842;50.904;6.670;2023-06-19T14:01:15;6.23;;;3.90;;
15480;SDS011;7842;50.904;6.670;2023-06-19T14:03:41;4.95;;;3.70;;
15480;SDS011;7842;50.904;6.670;2023-06-19T14:06:07;5.35;;;4.13;;
15480;SDS011;7842;50.904;6.670;2023-06-19T14:08:33;4.30;;;3.90;;
15480;SDS011;7842;50.904;6.670;2023-06-19T14:10:59;4.65;;;3.75;;
15480;SDS011;7842;50.904;6.670;2023-06-19T14:13:25;5.65;;;3.70;;
15480;SDS011;7842;50.904;6.670;2023-06-19T14:15:50;5.00;;;3.60;;
15480;SDS011;7842;50.904;6.670;2023-06-19T14:18:17;5.70;;;3.80;;
15480;SDS011;7842;50.904;6.670;2023-06-19T14:20:43;4.65;;;3.58;;
15480;SDS011;7842;50.904;6.670;2023-06-19T14:23:08;5.50;;;3.83;;
15480;SDS011;7842;50.904;6.670;2023-06-19T14:25:34;5.07;;;3.50;;
15480;SDS011;7842;50.904;6.670;2023-06-19T14:28:00;4.28;;;3.53;;
15480;SDS011;7842;50.904;6.670;2023-06-19T14:30:26;4.87;;;3.63;;
15480;SDS011;7842;50.904;6.670;2023-06-19T14:32:51;5.15;;;3.35;;
15480;SDS011;7842;50.904;6.670;2023-06-19T14:35:17;4.65;;;3.83;;
15480;SDS011;7842;50.904;6.670;2023-06-19T14:37:43;4.70;;;3.70;;
15480;SDS011;7842;50.904;6.670;2023-06-19T14:40:09;6.03;;;3.67;;
15480;SDS011;7842;50.904;6.670;2023-06-19T14:42:35;5.05;;;3.72;;
15480;SDS011;7842;50.904;6.670;2023-06-19T14:45:00;4.37;;;3.90;;
15480;SDS011;7842;50.904;6.670;2023-06-19T14:47:26;4.97;;;3.33;;
15480;SDS011;7842;50.904;6.670;2023-06-19T14:49:51;5.55;;;3.80;;
15480;SDS011;7842;50.904;6.670;2023-06-19T14:52:18;4.33;;;3.63;;
15480;SDS011;7842;50.904;6.670;2023-06-19T14:54:44;4.78;;;3.83;;
15480;SDS011;7842;50.904;6.670;2023-06-19T14:57:10;4.97;;;3.97;;
15480;SDS011;7842;50.904;6.670;2023-06-19T14:59:36;6.70;;;4.00;;
15480;SDS011;7842;50.904;6.670;2023-06-19T15:02:01;4.73;;;3.67;;
15480;SDS011;7842;50.904;6.670;2023-06-19T15:04:31;4.03;;;3.63;;